Time;durP1;ratioP1;P1;durP2;ratioP2;P2;SDS_P1;SDS_P2;PMS_P1;PMS_P2;Temp;Humidity;BMP_temperature;BMP_pressure;BME280_temperature;BME280_humidity;BME280_pressure;Samples;Min_cycle;Max_cycle;Signal;HPM_P1;HPM_P2
2021/01/11 00:01:43;;;;;;;63.90;20.33;;;;;;;;;;4962093;28;20050;-75
2021/01/11 00:04:09;;;;;;;52.63;20.85;;;;;;;;;;4982499;28;20048;-77
2021/01/11 00:06:36;;;;;;;63.58;19.95;;;;;;;;;;4993136;28;20037;-75
2021/01/11 00:09:02;;;;;;;59.50;20.23;;;;;;;;;;4978589;28;20156;-75
2021/01/11 00:11:28;;;;;;;65.72;22.10;;;;;;;;;;4983475;28;20147;-75
2021/01/11 00:13:54;;;;;;;64.50;22.60;;;;;;;;;;5004084;28;20130;-75
2021/01/11 00:16:20;;;;;;;60.72;21.35;;;;;;;;;;4965866;28;20041;-75
2021/01/11 00:18:46;;;;;;;44.38;19.20;;;;;;;;;;4968626;28;20091;-76
2021/01/11 00:21:16;;;;;;;50.60;19.73;;;;;;;;;;4971764;28;20037;-75
2021/01/11 00:23:42;;;;;;;49.25;19.92;;;;;;;;;;5003952;28;20029;-74
2021/01/11 00:26:11;;;;;;;43.45;17.77;;;;;;;;;;5003390;28;20033;-74
2021/01/11 00:28:41;;;;;;;37.13;15.10;;;;;;;;;;4998270;28;20037;-76
2021/01/11 00:31:07;;;;;;;40.05;16.65;;;;;;;;;;4985460;28;20026;-73
2021/01/11 00:33:33;;;;;;;40.55;16.60;;;;;;;;;;5001051;28;20033;-74
2021/01/11 00:35:59;;;;;;;46.80;17.55;;;;;;;;;;4971046;28;20117;-75
2021/01/11 00:38:25;;;;;;;38.78;14.88;;;;;;;;;;4967880;28;20355;-76
2021/01/11 00:40:51;;;;;;;41.03;14.75;;;;;;;;;;4968026;28;20044;-76
2021/01/11 00:43:17;;;;;;;34.13;14.65;;;;;;;;;;4985745;28;20281;-75
2021/01/11 00:45:43;;;;;;;33.65;14.68;;;;;;;;;;4986384;28;20047;-75
2021/01/11 00:48:09;;;;;;;35.65;14.98;;;;;;;;;;4984163;28;20026;-75
2021/01/11 00:50:35;;;;;;;37.75;13.30;;;;;;;;;;5001830;28;20061;-75
2021/01/11 00:53:01;;;;;;;42.03;15.07;;;;;;;;;;4983958;28;20507;-76
2021/01/11 00:55:27;;;;;;;39.55;15.27;;;;;;;;;;5002726;28;20100;-75
2021/01/11 00:57:53;;;;;;;37.40;12.40;;;;;;;;;;4985062;28;20402;-75
2021/01/11 01:00:20;;;;;;;34.63;12.98;;;;;;;;;;4999138;28;20080;-74
2021/01/11 01:02:46;;;;;;;30.48;12.18;;;;;;;;;;4999994;28;20034;-75
2021/01/11 01:05:12;;;;;;;41.88;11.90;;;;;;;;;;4984668;28;20029;-75
2021/01/11 01:07:39;;;;;;;30.65;12.23;;;;;;;;;;5002115;28;20033;-76
2021/01/11 01:10:05;;;;;;;32.92;11.82;;;;;;;;;;5000327;28;20765;-74
2021/01/11 01:12:32;;;;;;;31.00;12.50;;;;;;;;;;4984928;28;20029;-76
2021/01/11 01:14:58;;;;;;;32.10;12.02;;;;;;;;;;4983929;28;20115;-74
2021/01/11 01:17:24;;;;;;;34.67;13.75;;;;;;;;;;4984942;28;20029;-76
2021/01/11 01:19:50;;;;;;;39.97;11.85;;;;;;;;;;5002182;28;20025;-75
2021/01/11 01:22:16;;;;;;;31.38;13.10;;;;;;;;;;5001757;28;20088;-76
2021/01/11 01:24:42;;;;;;;44.97;15.05;;;;;;;;;;4988368;28;20079;-76
2021/01/11 01:27:08;;;;;;;37.17;12.77;;;;;;;;;;4990341;28;20035;-76
2021/01/11 01:29:34;;;;;;;35.90;12.30;;;;;;;;;;4989001;28;20029;-75
2021/01/11 01:32:00;;;;;;;25.88;10.05;;;;;;;;;;5007270;28;20568;-76
2021/01/11 01:34:26;;;;;;;27.75;9.23;;;;;;;;;;5005986;28;20037;-75
2021/01/11 01:36:55;;;;;;;23.40;8.93;;;;;;;;;;5003728;28;20029;-74
2021/01/11 01:39:21;;;;;;;20.88;8.15;;;;;;;;;;5001908;28;20033;-74
2021/01/11 01:41:47;;;;;;;32.92;9.20;;;;;;;;;;4989769;28;20520;-75
2021/01/11 01:44:13;;;;;;;30.10;9.30;;;;;;;;;;5005429;28;20029;-76
2021/01/11 01:46:39;;;;;;;26.48;8.45;;;;;;;;;;5026044;28;20029;-74
2021/01/11 01:49:05;;;;;;;28.17;10.95;;;;;;;;;;5002445;28;20030;-75
2021/01/11 01:51:31;;;;;;;25.98;7.47;;;;;;;;;;5015646;28;20065;-77
2021/01/11 01:53:57;;;;;;;22.08;6.65;;;;;;;;;;5021030;28;20116;-75
2021/01/11 01:56:23;;;;;;;19.67;6.80;;;;;;;;;;5014368;28;20152;-76
2021/01/11 01:58:49;;;;;;;26.67;6.15;;;;;;;;;;5001268;28;20375;-74
2021/01/11 02:01:15;;;;;;;23.38;7.13;;;;;;;;;;5021513;28;20057;-74
2021/01/11 02:03:41;;;;;;;18.58;4.43;;;;;;;;;;5001916;28;20571;-76
2021/01/11 02:06:07;;;;;;;14.20;4.38;;;;;;;;;;5002879;28;20469;-75
2021/01/11 02:08:43;;;;;;;24.83;4.68;;;;;;;;;;5004592;28;20494;-76
2021/01/11 02:11:22;;;;;;;16.98;4.32;;;;;;;;;;5003786;28;20108;-75
2021/01/11 02:14:07;;;;;;;8.68;2.28;;;;;;;;;;5007281;28;20098;-75
2021/01/11 02:16:42;;;;;;;15.20;2.22;;;;;;;;;;5002932;28;20092;-75
2021/01/11 02:19:17;;;;;;;15.20;2.47;;;;;;;;;;5024029;28;20112;-75
2021/01/11 02:22:02;;;;;;;9.43;2.42;;;;;;;;;;5033320;28;20060;-75
2021/01/11 02:24:31;;;;;;;16.95;3.20;;;;;;;;;;5015084;28;20032;-74
2021/01/11 02:27:13;;;;;;;10.77;2.53;;;;;;;;;;5026020;28;20025;-76
2021/01/11 02:29:51;;;;;;;15.32;2.83;;;;;;;;;;5023692;28;20126;-75
2021/01/11 02:32:17;;;;;;;9.23;2.85;;;;;;;;;;5034427;28;20056;-75
2021/01/11 02:34:43;;;;;;;17.83;4.50;;;;;;;;;;5003675;28;20494;-76
2021/01/11 02:37:09;;;;;;;13.32;4.85;;;;;;;;;;5016110;28;20061;-75
2021/01/11 02:39:35;;;;;;;22.65;5.88;;;;;;;;;;5023142;28;20033;-76
2021/01/11 02:42:01;;;;;;;10.90;4.38;;;;;;;;;;5007477;28;20049;-75
2021/01/11 02:44:27;;;;;;;15.75;3.88;;;;;;;;;;5010583;28;20132;-75
2021/01/11 02:46:53;;;;;;;11.82;3.25;;;;;;;;;;5007466;28;20040;-76
2021/01/11 02:49:30;;;;;;;15.30;2.50;;;;;;;;;;5011912;28;20025;-76
2021/01/11 02:51:59;;;;;;;15.07;2.22;;;;;;;;;;5012174;28;20024;-75
2021/01/11 02:54:33;;;;;;;21.20;3.63;;;;;;;;;;5018001;28;21435;-76
2021/01/11 02:57:04;;;;;;;14.60;2.75;;;;;;;;;;4999444;28;20034;-76
2021/01/11 02:59:32;;;;;;;14.20;3.13;;;;;;;;;;5021219;28;20461;-75
2021/01/11 03:01:59;;;;;;;27.48;4.03;;;;;;;;;;5011455;28;20096;-76
2021/01/11 03:04:25;;;;;;;11.10;4.43;;;;;;;;;;5000890;28;20259;-76
2021/01/11 03:06:55;;;;;;;18.65;5.47;;;;;;;;;;5008701;28;20456;-75
2021/01/11 03:09:24;;;;;;;16.95;5.00;;;;;;;;;;4987927;28;20119;-75
2021/01/11 03:11:50;;;;;;;24.40;5.05;;;;;;;;;;5011878;28;20029;-76
2021/01/11 03:14:16;;;;;;;16.02;4.75;;;;;;;;;;5009552;28;20049;-76
2021/01/11 03:16:42;;;;;;;19.10;5.00;;;;;;;;;;5025646;28;20107;-75
2021/01/11 03:19:08;;;;;;;20.30;5.63;;;;;;;;;;5021509;28;20588;-74
2021/01/11 03:21:37;;;;;;;17.35;4.35;;;;;;;;;;5031285;28;20033;-76
2021/01/11 03:24:07;;;;;;;16.95;4.75;;;;;;;;;;5032723;28;20556;-76
2021/01/11 03:26:33;;;;;;;15.25;3.58;;;;;;;;;;5013029;28;20068;-75
2021/01/11 03:29:00;;;;;;;12.40;3.83;;;;;;;;;;5015748;28;20119;-76
2021/01/11 03:31:26;;;;;;;26.48;5.65;;;;;;;;;;5024933;28;20037;-76
2021/01/11 03:33:52;;;;;;;11.40;3.92;;;;;;;;;;5023695;28;20022;-75
2021/01/11 03:36:18;;;;;;;13.32;4.28;;;;;;;;;;5007085;28;20152;-75
2021/01/11 03:38:44;;;;;;;11.43;4.18;;;;;;;;;;5033569;28;20029;-76
2021/01/11 03:41:11;;;;;;;10.63;4.80;;;;;;;;;;5003048;28;20141;-75
2021/01/11 03:43:38;;;;;;;10.07;4.05;;;;;;;;;;5023919;28;20072;-75
2021/01/11 03:46:04;;;;;;;19.95;5.15;;;;;;;;;;5005109;28;20029;-74
2021/01/11 03:48:30;;;;;;;9.00;2.67;;;;;;;;;;5014135;28;20029;-75
2021/01/11 03:50:56;;;;;;;9.32;3.53;;;;;;;;;;5006645;28;20489;-76
2021/01/11 03:53:22;;;;;;;12.43;3.13;;;;;;;;;;5024454;28;20060;-75
2021/01/11 03:55:49;;;;;;;12.40;3.40;;;;;;;;;;5022539;28;20474;-75
2021/01/11 03:58:15;;;;;;;6.47;2.50;;;;;;;;;;5019784;28;20060;-75
2021/01/11 04:00:41;;;;;;;11.68;3.13;;;;;;;;;;5023077;28;20092;-75
2021/01/11 04:03:07;;;;;;;10.13;3.40;;;;;;;;;;5019127;28;20314;-76
2021/01/11 04:05:34;;;;;;;8.48;3.72;;;;;;;;;;5018681;28;20059;-76
2021/01/11 04:08:00;;;;;;;9.85;3.47;;;;;;;;;;5025248;28;20029;-76
2021/01/11 04:10:27;;;;;;;13.38;3.30;;;;;;;;;;5011521;28;20044;-76
2021/01/11 04:12:53;;;;;;;16.50;4.20;;;;;;;;;;5019604;28;20284;-76
2021/01/11 04:15:19;;;;;;;10.43;3.47;;;;;;;;;;5026389;28;20072;-76
2021/01/11 04:17:45;;;;;;;17.40;4.07;;;;;;;;;;5042164;28;20037;-75
2021/01/11 04:20:11;;;;;;;8.13;3.03;;;;;;;;;;5041657;28;20055;-76
2021/01/11 04:22:37;;;;;;;20.33;3.58;;;;;;;;;;5036462;28;20332;-76
2021/01/11 04:25:03;;;;;;;12.07;3.72;;;;;;;;;;5012746;28;20059;-75
2021/01/11 04:27:29;;;;;;;12.75;4.13;;;;;;;;;;5034991;28;20029;-75
2021/01/11 04:29:55;;;;;;;13.88;4.45;;;;;;;;;;5037222;28;20067;-74
2021/01/11 04:32:21;;;;;;;20.10;5.68;;;;;;;;;;5037874;28;20067;-75
2021/01/11 04:34:47;;;;;;;13.32;5.82;;;;;;;;;;5035302;28;20040;-75
2021/01/11 04:37:13;;;;;;;18.10;5.65;;;;;;;;;;5015177;28;20021;-75
2021/01/11 04:39:39;;;;;;;16.88;5.75;;;;;;;;;;5032339;28;20037;-76
2021/01/11 04:42:06;;;;;;;12.57;4.68;;;;;;;;;;5013957;28;20581;-76
2021/01/11 04:44:33;;;;;;;13.48;6.03;;;;;;;;;;4996594;28;20025;-76
2021/01/11 04:46:59;;;;;;;21.70;6.53;;;;;;;;;;4995482;28;20518;-76
2021/01/11 04:49:25;;;;;;;17.05;6.55;;;;;;;;;;5001729;28;20025;-76
2021/01/11 04:51:52;;;;;;;12.43;4.65;;;;;;;;;;5025769;28;20447;-76
2021/01/11 04:54:18;;;;;;;19.40;4.88;;;;;;;;;;4999474;28;20093;-76
2021/01/11 04:56:47;;;;;;;18.40;5.70;;;;;;;;;;5016931;28;20029;-77
2021/01/11 04:59:20;;;;;;;19.23;5.78;;;;;;;;;;5025444;28;20381;-74
2021/01/11 05:01:52;;;;;;;15.25;3.85;;;;;;;;;;5002569;28;20057;-75
2021/01/11 05:04:18;;;;;;;17.52;4.55;;;;;;;;;;5040241;28;20026;-76
2021/01/11 05:06:45;;;;;;;19.40;4.28;;;;;;;;;;5020214;28;20039;-75
2021/01/11 05:09:14;;;;;;;15.82;3.95;;;;;;;;;;5021444;28;20022;-75
2021/01/11 05:11:40;;;;;;;12.63;3.75;;;;;;;;;;5026926;28;20398;-75
2021/01/11 05:14:06;;;;;;;19.85;4.75;;;;;;;;;;5044360;28;20049;-76
2021/01/11 05:16:32;;;;;;;10.93;3.35;;;;;;;;;;5026217;28;20026;-76
2021/01/11 05:19:17;;;;;;;17.58;3.95;;;;;;;;;;5019321;28;20048;-75
2021/01/11 05:21:46;;;;;;;18.42;3.25;;;;;;;;;;5021694;28;20034;-75
2021/01/11 05:24:31;;;;;;;12.48;3.60;;;;;;;;;;5023623;28;20025;-75
2021/01/11 05:27:00;;;;;;;19.75;5.15;;;;;;;;;;5039417;28;20477;-76
2021/01/11 05:29:26;;;;;;;15.52;3.83;;;;;;;;;;5015897;28;20060;-76
2021/01/11 05:31:58;;;;;;;20.42;5.78;;;;;;;;;;5019091;28;20029;-76
2021/01/11 05:34:24;;;;;;;12.43;4.82;;;;;;;;;;5038268;28;20501;-75
2021/01/11 05:36:50;;;;;;;21.42;6.25;;;;;;;;;;5016458;28;20908;-76
2021/01/11 05:39:16;;;;;;;12.43;3.45;;;;;;;;;;5029357;28;21462;-76
2021/01/11 05:41:43;;;;;;;15.20;5.95;;;;;;;;;;5039053;28;20037;-76
2021/01/11 05:44:10;;;;;;;30.42;5.53;;;;;;;;;;5033956;28;20025;-76
2021/01/11 05:46:36;;;;;;;30.83;8.77;;;;;;;;;;5010911;28;20084;-76
2021/01/11 05:49:03;;;;;;;22.88;5.28;;;;;;;;;;5030953;28;20041;-75
2021/01/11 05:51:29;;;;;;;22.92;6.03;;;;;;;;;;5037415;28;20040;-76
2021/01/11 05:53:56;;;;;;;16.13;5.57;;;;;;;;;;5021203;28;20033;-76
2021/01/11 05:56:22;;;;;;;13.25;4.97;;;;;;;;;;5038194;28;20026;-76
2021/01/11 05:59:04;;;;;;;27.58;5.93;;;;;;;;;;5013306;28;20033;-74
2021/01/11 06:01:30;;;;;;;17.23;4.55;;;;;;;;;;5040610;28;20039;-75
2021/01/11 06:03:56;;;;;;;17.92;4.70;;;;;;;;;;5037817;28;20052;-76
2021/01/11 06:06:23;;;;;;;19.58;4.13;;;;;;;;;;5019151;28;20036;-76
2021/01/11 06:08:49;;;;;;;22.60;7.40;;;;;;;;;;5013059;28;20037;-76
2021/01/11 06:11:15;;;;;;;21.15;6.28;;;;;;;;;;5034626;28;20025;-76
2021/01/11 06:13:45;;;;;;;29.73;6.20;;;;;;;;;;5016054;28;20571;-75
2021/01/11 06:16:11;;;;;;;18.90;5.53;;;;;;;;;;5037127;28;20029;-75
2021/01/11 06:18:37;;;;;;;23.85;4.80;;;;;;;;;;5003709;28;20029;-76
2021/01/11 06:21:03;;;;;;;32.03;6.15;;;;;;;;;;5039477;28;20021;-76
2021/01/11 06:23:29;;;;;;;17.95;3.88;;;;;;;;;;5040611;28;20041;-76
2021/01/11 06:25:55;;;;;;;19.50;3.40;;;;;;;;;;5037037;28;20097;-75
2021/01/11 06:28:29;;;;;;;17.88;3.15;;;;;;;;;;5001883;28;20133;-76
2021/01/11 06:30:54;;;;;;;27.70;4.45;;;;;;;;;;5036600;28;20037;-75
2021/01/11 06:33:27;;;;;;;26.50;4.40;;;;;;;;;;5020105;28;20021;-75
2021/01/11 06:35:53;;;;;;;18.55;4.88;;;;;;;;;;5033339;28;20033;-76
2021/01/11 06:38:22;;;;;;;21.73;4.85;;;;;;;;;;5015144;28;20051;-75
2021/01/11 06:40:54;;;;;;;17.08;3.00;;;;;;;;;;5032488;28;20033;-75
2021/01/11 06:43:21;;;;;;;15.80;4.85;;;;;;;;;;5041813;28;20104;-76
2021/01/11 06:45:47;;;;;;;19.23;3.65;;;;;;;;;;5033393;28;20225;-81
2021/01/11 06:48:14;;;;;;;11.52;3.80;;;;;;;;;;4993087;28;20032;-84
2021/01/11 06:50:40;;;;;;;19.13;4.72;;;;;;;;;;4985785;28;20029;-81
2021/01/11 06:53:06;;;;;;;20.00;3.40;;;;;;;;;;4996702;28;20409;-82
2021/01/11 06:55:32;;;;;;;18.65;4.35;;;;;;;;;;4984830;28;20081;-83
2021/01/11 06:57:59;;;;;;;20.63;3.10;;;;;;;;;;5011992;28;20024;-83
2021/01/11 07:00:32;;;;;;;43.25;5.25;;;;;;;;;;4990322;28;20048;-82
2021/01/11 07:02:58;;;;;;;19.92;4.57;;;;;;;;;;4987490;28;20124;-83
2021/01/11 07:05:36;;;;;;;26.33;5.55;;;;;;;;;;4988382;28;20025;-80
2021/01/11 07:08:09;;;;;;;25.70;6.05;;;;;;;;;;5017037;28;20039;-80
2021/01/11 07:10:35;;;;;;;31.65;5.72;;;;;;;;;;4989884;28;20113;-77
2021/01/11 07:13:20;;;;;;;20.75;4.72;;;;;;;;;;5001237;28;20047;-79
2021/01/11 07:15:46;;;;;;;37.05;5.43;;;;;;;;;;5017881;28;20124;-82
2021/01/11 07:18:32;;;;;;;14.10;4.75;;;;;;;;;;4991569;28;20555;-80
2021/01/11 07:20:58;;;;;;;56.88;8.65;;;;;;;;;;5024315;28;20021;-82
2021/01/11 07:23:25;;;;;;;32.60;7.32;;;;;;;;;;5004346;28;20067;-79
2021/01/11 07:25:51;;;;;;;45.55;6.78;;;;;;;;;;5024309;28;20029;-79
2021/01/11 07:28:17;;;;;;;38.13;4.88;;;;;;;;;;5002950;28;20029;-78
2021/01/11 07:30:43;;;;;;;21.27;5.10;;;;;;;;;;4984900;28;20147;-76
2021/01/11 07:33:13;;;;;;;29.20;6.68;;;;;;;;;;5003669;28;20041;-77
2021/01/11 07:35:39;;;;;;;31.50;4.90;;;;;;;;;;5020116;28;20030;-78
2021/01/11 07:38:05;;;;;;;27.25;5.93;;;;;;;;;;4982550;28;20721;-79
2021/01/11 07:40:31;;;;;;;23.10;4.65;;;;;;;;;;4981871;28;20025;-77
2021/01/11 07:42:58;;;;;;;9.75;4.05;;;;;;;;;;5014607;28;20037;-76
2021/01/11 07:45:24;;;;;;;14.82;4.38;;;;;;;;;;4998125;28;20086;-77
2021/01/11 07:47:51;;;;;;;19.38;4.65;;;;;;;;;;5001267;28;20041;-78
2021/01/11 07:50:17;;;;;;;32.40;8.05;;;;;;;;;;4992104;28;20477;-79
2021/01/11 07:52:43;;;;;;;25.15;5.68;;;;;;;;;;5018265;28;20025;-77
2021/01/11 07:55:11;;;;;;;31.45;8.05;;;;;;;;;;4980752;28;20033;-78
2021/01/11 07:57:37;;;;;;;38.25;9.75;;;;;;;;;;4983885;28;20050;-79
2021/01/11 08:00:08;;;;;;;40.88;10.27;;;;;;;;;;4982683;28;20029;-81
2021/01/11 08:02:34;;;;;;;38.25;8.90;;;;;;;;;;4998243;28;20045;-79
2021/01/11 08:05:00;;;;;;;32.53;7.35;;;;;;;;;;5002006;28;20025;-79
2021/01/11 08:07:27;;;;;;;29.75;8.10;;;;;;;;;;5018562;28;20067;-79
2021/01/11 08:09:54;;;;;;;25.55;6.95;;;;;;;;;;4979250;28;20029;-81
2021/01/11 08:12:20;;;;;;;33.78;6.85;;;;;;;;;;4987745;28;20069;-80
2021/01/11 08:14:47;;;;;;;12.15;3.65;;;;;;;;;;4985229;28;20071;-77
2021/01/11 08:17:14;;;;;;;16.63;3.63;;;;;;;;;;5001185;28;20029;-77
2021/01/11 08:19:43;;;;;;;19.27;4.88;;;;;;;;;;5002098;28;20355;-82
2021/01/11 08:22:12;;;;;;;28.30;6.18;;;;;;;;;;5003823;28;20056;-78
2021/01/11 08:24:39;;;;;;;32.95;7.50;;;;;;;;;;4982706;28;20037;-79
2021/01/11 08:27:28;;;;;;;20.17;3.63;;;;;;;;;;4987197;28;20033;-78
2021/01/11 08:29:54;;;;;;;18.88;5.20;;;;;;;;;;5001479;28;20073;-79
2021/01/11 08:32:20;;;;;;;19.65;5.68;;;;;;;;;;5002873;28;20232;-78
2021/01/11 08:34:46;;;;;;;20.42;5.95;;;;;;;;;;4984629;28;20034;-77
2021/01/11 08:37:19;;;;;;;15.20;3.63;;;;;;;;;;5006780;28;20033;-80
2021/01/11 08:39:55;;;;;;;18.02;3.83;;;;;;;;;;4990996;28;20049;-81
2021/01/11 08:42:22;;;;;;;22.98;5.60;;;;;;;;;;4997299;28;20045;-78
2021/01/11 08:44:48;;;;;;;20.48;6.65;;;;;;;;;;4990720;28;20025;-76
2021/01/11 08:47:14;;;;;;;29.52;7.80;;;;;;;;;;4991305;28;20401;-78
2021/01/11 08:49:55;;;;;;;34.15;6.35;;;;;;;;;;5019323;28;20021;-77
2021/01/11 08:52:25;;;;;;;26.73;5.82;;;;;;;;;;5008339;28;20393;-80
2021/01/11 08:54:51;;;;;;;37.85;9.93;;;;;;;;;;4974494;28;20038;-81
2021/01/11 08:57:17;;;;;;;21.05;5.65;;;;;;;;;;4984644;28;20373;-81
2021/01/11 08:59:50;;;;;;;29.73;7.93;;;;;;;;;;5006644;28;20432;-81
2021/01/11 09:02:29;;;;;;;34.58;7.47;;;;;;;;;;5003548;28;20592;-81
2021/01/11 09:04:56;;;;;;;36.20;8.88;;;;;;;;;;4993468;28;20025;-78
2021/01/11 09:07:29;;;;;;;42.70;9.23;;;;;;;;;;4984411;28;20022;-80
2021/01/11 09:09:55;;;;;;;42.13;9.38;;;;;;;;;;4984084;28;20037;-78
2021/01/11 09:12:28;;;;;;;39.70;11.82;;;;;;;;;;5001859;28;20702;-79
2021/01/11 09:14:54;;;;;;;31.95;7.32;;;;;;;;;;5001061;28;20107;-79
2021/01/11 09:17:32;;;;;;;30.50;7.93;;;;;;;;;;4987552;28;20428;-78
2021/01/11 09:20:02;;;;;;;33.20;9.00;;;;;;;;;;5003620;28;20041;-79
2021/01/11 09:22:31;;;;;;;35.15;10.88;;;;;;;;;;5017754;28;20041;-81
2021/01/11 09:24:57;;;;;;;31.33;8.63;;;;;;;;;;4980463;28;20033;-79
2021/01/11 09:27:25;;;;;;;40.80;9.88;;;;;;;;;;5002490;28;20606;-79
2021/01/11 09:29:51;;;;;;;36.03;10.52;;;;;;;;;;5006157;28;20462;-81
2021/01/11 09:32:17;;;;;;;46.67;8.90;;;;;;;;;;4985271;28;20108;-81
2021/01/11 09:34:43;;;;;;;24.45;7.05;;;;;;;;;;5007419;28;20029;-82
2021/01/11 09:37:11;;;;;;;43.63;10.40;;;;;;;;;;5002055;28;20284;-81
2021/01/11 09:39:37;;;;;;;44.90;11.30;;;;;;;;;;5023045;28;20375;-79
2021/01/11 09:42:03;;;;;;;46.33;12.20;;;;;;;;;;4988035;28;20080;-81
2021/01/11 09:44:30;;;;;;;42.42;11.02;;;;;;;;;;4982751;28;20389;-79
2021/01/11 09:46:57;;;;;;;38.20;12.20;;;;;;;;;;4985052;28;20264;-81
2021/01/11 09:49:23;;;;;;;45.80;10.57;;;;;;;;;;4985288;28;20174;-80
2021/01/11 09:51:49;;;;;;;21.17;5.88;;;;;;;;;;4977334;28;20045;-79
2021/01/11 09:54:15;;;;;;;45.13;10.88;;;;;;;;;;4976014;28;20033;-80
2021/01/11 09:56:41;;;;;;;25.38;6.55;;;;;;;;;;4997051;28;20022;-78
2021/01/11 09:59:07;;;;;;;32.42;9.45;;;;;;;;;;4998880;28;20036;-78
2021/01/11 10:01:39;;;;;;;40.33;10.23;;;;;;;;;;4996193;28;20052;-78
2021/01/11 10:04:05;;;;;;;48.72;14.25;;;;;;;;;;5011596;28;20280;-80
2021/01/11 10:06:38;;;;;;;10.60;4.68;;;;;;;;;;4995440;28;20545;-80
2021/01/11 10:09:04;;;;;;;45.13;14.25;;;;;;;;;;4997565;28;20083;-81
2021/01/11 10:11:30;;;;;;;44.33;10.43;;;;;;;;;;4981693;28;20425;-79
2021/01/11 10:13:57;;;;;;;41.20;11.32;;;;;;;;;;4984033;28;20699;-78
2021/01/11 10:16:23;;;;;;;29.10;6.88;;;;;;;;;;5020369;28;20135;-80
2021/01/11 10:18:49;;;;;;;37.63;11.40;;;;;;;;;;4979040;28;20051;-78
2021/01/11 10:21:15;;;;;;;36.47;9.07;;;;;;;;;;4994744;28;20402;-78
2021/01/11 10:23:41;;;;;;;33.13;11.25;;;;;;;;;;4995916;28;20500;-78
2021/01/11 10:26:15;;;;;;;50.60;15.02;;;;;;;;;;4998530;28;20152;-78
2021/01/11 10:28:41;;;;;;;44.40;12.65;;;;;;;;;;4994407;28;20053;-78
2021/01/11 10:31:07;;;;;;;33.53;10.55;;;;;;;;;;5018870;28;20565;-78
2021/01/11 10:33:33;;;;;;;48.20;12.35;;;;;;;;;;4994189;28;20032;-79
2021/01/11 10:35:59;;;;;;;9.00;3.90;;;;;;;;;;5002289;28;20366;-78
2021/01/11 10:38:25;;;;;;;39.30;9.32;;;;;;;;;;4978254;28;20029;-79
2021/01/11 10:40:51;;;;;;;48.53;13.20;;;;;;;;;;4981790;28;20132;-79
2021/01/11 10:43:17;;;;;;;32.53;12.55;;;;;;;;;;4981292;28;20059;-78
2021/01/11 10:45:43;;;;;;;31.20;9.40;;;;;;;;;;4996946;28;20549;-78
2021/01/11 10:48:09;;;;;;;34.97;11.80;;;;;;;;;;4977331;28;20035;-79
2021/01/11 10:50:35;;;;;;;31.38;11.10;;;;;;;;;;4997100;28;20393;-77
2021/01/11 10:53:01;;;;;;;26.67;10.13;;;;;;;;;;5012867;28;20014;-78
2021/01/11 10:55:27;;;;;;;19.13;5.22;;;;;;;;;;4989067;28;20204;-78
2021/01/11 10:57:53;;;;;;;10.70;4.25;;;;;;;;;;5008934;28;21904;-78
2021/01/11 11:00:21;;;;;;;33.53;10.68;;;;;;;;;;4978949;28;20040;-77
2021/01/11 11:02:49;;;;;;;37.03;9.27;;;;;;;;;;4979346;28;20520;-76
2021/01/11 11:05:16;;;;;;;34.38;8.32;;;;;;;;;;4975692;28;20033;-77
2021/01/11 11:07:43;;;;;;;30.63;9.60;;;;;;;;;;4999405;28;20033;-77
2021/01/11 11:10:09;;;;;;;43.10;11.55;;;;;;;;;;4988150;28;20463;-78
2021/01/11 11:12:38;;;;;;;13.55;4.82;;;;;;;;;;4999854;28;20036;-77
2021/01/11 11:15:05;;;;;;;14.00;4.32;;;;;;;;;;5001800;28;20048;-78
2021/01/11 11:17:31;;;;;;;17.25;5.65;;;;;;;;;;5004089;28;20057;-78
2021/01/11 11:19:57;;;;;;;29.42;7.53;;;;;;;;;;4997220;28;20083;-77
2021/01/11 11:22:24;;;;;;;29.67;11.20;;;;;;;;;;4975544;28;20042;-79
2021/01/11 11:24:50;;;;;;;14.77;5.63;;;;;;;;;;4983989;28;20032;-77
2021/01/11 11:27:16;;;;;;;37.33;10.50;;;;;;;;;;4984530;28;20030;-78
2021/01/11 11:29:42;;;;;;;29.15;11.38;;;;;;;;;;4989738;28;20044;-77
2021/01/11 11:32:08;;;;;;;17.35;6.10;;;;;;;;;;4980189;28;20026;-79
2021/01/11 11:34:34;;;;;;;19.88;5.90;;;;;;;;;;4985053;28;20401;-78
2021/01/11 11:37:00;;;;;;;34.45;12.23;;;;;;;;;;5012272;28;20029;-78
2021/01/11 11:39:26;;;;;;;20.77;7.53;;;;;;;;;;4992055;28;20033;-77
2021/01/11 11:41:56;;;;;;;25.52;9.25;;;;;;;;;;4998612;28;20025;-78
2021/01/11 11:44:22;;;;;;;40.70;13.95;;;;;;;;;;4998181;28;20267;-79
2021/01/11 11:46:48;;;;;;;30.75;10.15;;;;;;;;;;4983028;28;20018;-78
2021/01/11 11:49:14;;;;;;;29.75;9.43;;;;;;;;;;4982920;28;20022;-80
2021/01/11 11:51:44;;;;;;;31.95;11.10;;;;;;;;;;5002035;28;20354;-78
2021/01/11 11:54:10;;;;;;;19.92;7.75;;;;;;;;;;4999730;28;20099;-79
2021/01/11 11:56:38;;;;;;;33.90;11.85;;;;;;;;;;4980395;28;20029;-78
2021/01/11 11:59:05;;;;;;;23.35;5.90;;;;;;;;;;4977707;28;20038;-81
2021/01/11 12:01:37;;;;;;;25.00;8.20;;;;;;;;;;4974635;28;21122;-78
2021/01/11 12:04:04;;;;;;;27.25;8.45;;;;;;;;;;4980883;28;20033;-77
2021/01/11 12:06:59;;;;;;;27.08;11.40;;;;;;;;;;5015011;28;20725;-77
2021/01/11 12:09:25;;;;;;;18.13;6.18;;;;;;;;;;4995503;28;20536;-80
2021/01/11 12:11:53;;;;;;;43.53;10.27;;;;;;;;;;4997452;28;20033;-79
2021/01/11 12:14:19;;;;;;;27.70;9.80;;;;;;;;;;4996865;28;20076;-79
2021/01/11 12:16:49;;;;;;;13.50;5.88;;;;;;;;;;5009435;28;20100;-75
2021/01/11 12:19:15;;;;;;;26.60;6.90;;;;;;;;;;5012667;28;20029;-79
2021/01/11 12:21:41;;;;;;;18.55;6.63;;;;;;;;;;4977742;28;20041;-77
2021/01/11 12:24:09;;;;;;;28.27;8.00;;;;;;;;;;4989393;28;20397;-77
2021/01/11 12:26:42;;;;;;;14.82;6.25;;;;;;;;;;4977977;28;20057;-77
2021/01/11 12:29:08;;;;;;;14.75;5.55;;;;;;;;;;4994197;28;20127;-77
2021/01/11 12:31:34;;;;;;;11.75;4.85;;;;;;;;;;4989283;28;20091;-76
2021/01/11 12:34:00;;;;;;;13.75;6.82;;;;;;;;;;4994733;28;20026;-77
2021/01/11 12:36:26;;;;;;;15.82;5.15;;;;;;;;;;5013216;28;20029;-76
2021/01/11 12:38:53;;;;;;;13.52;5.70;;;;;;;;;;4992484;28;20029;-77
2021/01/11 12:41:22;;;;;;;19.98;4.85;;;;;;;;;;4976992;28;20025;-76
2021/01/11 12:43:48;;;;;;;19.13;9.27;;;;;;;;;;4978427;28;20099;-76
2021/01/11 12:46:15;;;;;;;14.15;6.10;;;;;;;;;;4996370;28;20036;-77
2021/01/11 12:48:41;;;;;;;28.13;8.23;;;;;;;;;;4994327;28;20061;-77
2021/01/11 12:51:11;;;;;;;16.63;6.30;;;;;;;;;;4996946;28;20026;-78
2021/01/11 12:53:37;;;;;;;23.33;6.85;;;;;;;;;;4976073;28;20039;-78
2021/01/11 12:56:10;;;;;;;29.25;11.20;;;;;;;;;;4992251;28;20128;-77
2021/01/11 12:58:37;;;;;;;19.98;8.23;;;;;;;;;;4993612;28;20048;-76
2021/01/11 13:01:03;;;;;;;15.73;5.32;;;;;;;;;;4994827;28;20033;-77
2021/01/11 13:03:29;;;;;;;18.42;8.82;;;;;;;;;;4991442;28;20136;-77
2021/01/11 13:05:55;;;;;;;27.48;9.48;;;;;;;;;;4987597;28;20030;-77
2021/01/11 13:08:21;;;;;;;20.25;8.32;;;;;;;;;;4982265;28;20386;-76
2021/01/11 13:10:47;;;;;;;17.40;7.68;;;;;;;;;;5002750;28;20018;-77
2021/01/11 13:13:13;;;;;;;28.88;13.73;;;;;;;;;;4984777;28;20033;-78
2021/01/11 13:15:39;;;;;;;29.65;10.68;;;;;;;;;;5003404;28;20045;-76
2021/01/11 13:18:06;;;;;;;18.85;7.78;;;;;;;;;;5017820;28;20108;-77
2021/01/11 13:20:31;;;;;;;24.10;9.95;;;;;;;;;;5002019;28;20053;-77
2021/01/11 13:22:57;;;;;;;33.90;11.98;;;;;;;;;;5000490;28;20081;-77
2021/01/11 13:25:27;;;;;;;30.05;12.13;;;;;;;;;;5017544;28;20084;-76
2021/01/11 13:27:53;;;;;;;42.10;14.20;;;;;;;;;;5001611;28;20548;-77
2021/01/11 13:30:20;;;;;;;18.92;7.32;;;;;;;;;;4992266;28;20393;-76
2021/01/11 13:32:46;;;;;;;26.58;10.73;;;;;;;;;;4997327;28;20025;-76
2021/01/11 13:35:12;;;;;;;28.17;9.85;;;;;;;;;;5002520;28;20029;-75
2021/01/11 13:37:38;;;;;;;34.20;14.75;;;;;;;;;;5002502;28;20038;-75
2021/01/11 13:40:08;;;;;;;21.88;9.15;;;;;;;;;;5000800;28;20784;-75
2021/01/11 13:42:35;;;;;;;41.67;14.10;;;;;;;;;;5000508;28;20044;-77
2021/01/11 13:45:02;;;;;;;42.13;14.35;;;;;;;;;;4986381;28;20381;-75
2021/01/11 13:47:28;;;;;;;26.40;11.68;;;;;;;;;;5005149;28;20021;-76
2021/01/11 13:49:54;;;;;;;23.30;8.40;;;;;;;;;;5004206;28;20021;-77
2021/01/11 13:52:20;;;;;;;30.25;12.07;;;;;;;;;;4989730;28;20367;-74
2021/01/11 13:54:49;;;;;;;28.27;11.45;;;;;;;;;;5014972;28;20032;-75
2021/01/11 13:57:15;;;;;;;25.45;9.57;;;;;;;;;;5004860;28;20982;-78
2021/01/11 13:59:41;;;;;;;28.58;11.00;;;;;;;;;;5003964;28;20022;-75
2021/01/11 14:02:07;;;;;;;19.38;8.98;;;;;;;;;;5024129;28;20449;-76
2021/01/11 14:04:34;;;;;;;22.55;10.80;;;;;;;;;;5007627;28;20017;-74
2021/01/11 14:07:00;;;;;;;17.67;6.88;;;;;;;;;;4988711;28;20029;-76
2021/01/11 14:09:26;;;;;;;28.13;9.90;;;;;;;;;;4984463;28;20017;-75
2021/01/11 14:11:52;;;;;;;19.75;8.93;;;;;;;;;;5003019;28;20022;-75
2021/01/11 14:14:18;;;;;;;24.98;10.43;;;;;;;;;;5006750;28;20045;-75
2021/01/11 14:16:50;;;;;;;24.45;11.82;;;;;;;;;;5016874;28;20061;-75
2021/01/11 14:19:19;;;;;;;20.92;8.73;;;;;;;;;;4998117;28;20847;-75
2021/01/11 14:21:49;;;;;;;15.18;7.45;;;;;;;;;;4997944;28;20030;-74
2021/01/11 14:24:15;;;;;;;34.80;11.10;;;;;;;;;;4996574;28;20326;-74
2021/01/11 14:26:41;;;;;;;31.20;11.77;;;;;;;;;;4983170;28;20643;-75
2021/01/11 14:29:07;;;;;;;15.15;6.30;;;;;;;;;;4999195;28;20083;-76